Time;durP1;ratioP1;P1;durP2;ratioP2;P2;SDS_P1;SDS_P2;PMS_P1;PMS_P2;Temp;Humidity;BMP_temperature;BMP_pressure;BME280_temperature;BME280_humidity;BME280_pressure;Samples;Min_cycle;Max_cycle;Signal;HPM_P1;HPM_P2
2023/03/13 00:01:36;;;;;;;9.30;2.97;;;;;;;8.81;66.06;96251.78;4948754;29;20059;-88
2023/03/13 00:04:05;;;;;;;13.80;3.03;;;;;;;8.76;66.37;96245.47;4948920;29;20054;-84
2023/03/13 00:06:37;;;;;;;6.75;2.63;;;;;;;8.70;66.46;96246.97;4949101;29;20407;-87
2023/03/13 00:09:06;;;;;;;8.32;3.22;;;;;;;8.65;66.37;96249.31;4948854;29;20048;-85
2023/03/13 00:11:34;;;;;;;10.15;2.70;;;;;;;8.60;66.51;96236.84;4949078;29;20115;-83
2023/03/13 00:14:04;;;;;;;7.43;2.75;;;;;;;8.53;66.58;96235.16;4949038;29;20063;-86
2023/03/13 00:16:36;;;;;;;7.63;2.72;;;;;;;8.46;66.61;96235.03;4948735;29;20106;-87
2023/03/13 00:19:04;;;;;;;9.85;2.75;;;;;;;8.40;67.32;96233.97;4947085;29;20051;-89
2023/03/13 00:21:36;;;;;;;9.88;3.40;;;;;;;8.35;67.25;96231.06;4947273;29;20438;-84
2023/03/13 00:24:04;;;;;;;7.47;2.83;;;;;;;8.32;67.27;96234.00;4947076;29;20055;-83
2023/03/13 00:26:32;;;;;;;10.35;2.55;;;;;;;8.28;67.16;96232.75;4946364;29;20107;-84
2023/03/13 00:29:00;;;;;;;10.52;4.15;;;;;;;8.22;67.50;96234.25;4945855;29;20499;-86
2023/03/13 00:31:29;;;;;;;10.52;3.45;;;;;;;8.16;67.56;96247.94;4946059;29;20048;-84
2023/03/13 00:33:59;;;;;;;9.10;2.65;;;;;;;8.11;68.04;96247.69;4945598;29;20062;-86
2023/03/13 00:36:29;;;;;;;7.80;2.85;;;;;;;8.06;67.78;96249.97;4946723;29;20073;-86
2023/03/13 00:38:59;;;;;;;14.52;3.40;;;;;;;7.98;67.70;96248.25;4946160;29;20147;-86
2023/03/13 00:41:28;;;;;;;13.07;3.63;;;;;;;7.90;68.01;96250.91;4946206;29;20067;-84
2023/03/13 00:43:56;;;;;;;9.25;3.20;;;;;;;7.86;68.15;96244.44;4946454;29;20051;-83
2023/03/13 00:46:26;;;;;;;9.05;2.83;;;;;;;7.81;68.20;96234.56;4946583;29;20494;-82
2023/03/13 00:48:55;;;;;;;13.45;3.22;;;;;;;7.81;69.33;96231.19;4945276;29;20075;-84
2023/03/13 00:51:25;;;;;;;7.68;2.70;;;;;;;7.79;68.72;96227.94;4946784;29;20056;-84
2023/03/13 00:53:54;;;;;;;7.72;3.08;;;;;;;7.74;68.73;96223.28;4945630;29;20067;-85
2023/03/13 00:56:23;;;;;;;8.32;2.45;;;;;;;7.73;69.08;96224.25;4946238;29;20059;-86
2023/03/13 00:58:51;;;;;;;7.28;2.88;;;;;;;7.71;69.20;96221.00;4944982;29;20055;-83
2023/03/13 01:01:21;;;;;;;10.48;3.55;;;;;;;7.72;69.09;96221.81;4945274;29;20048;-83
2023/03/13 01:03:51;;;;;;;9.48;3.10;;;;;;;7.70;69.73;96216.00;4944885;29;20050;-88
2023/03/13 01:06:21;;;;;;;7.65;2.40;;;;;;;7.70;69.43;96213.41;4944730;29;20103;-85
2023/03/13 01:08:50;;;;;;;9.32;3.20;;;;;;;7.70;69.18;96216.00;4944097;29;20115;-85
2023/03/13 01:11:20;;;;;;;10.02;2.67;;;;;;;7.69;69.12;96211.78;4944950;29;20062;-84
2023/03/13 01:13:49;;;;;;;7.03;2.47;;;;;;;7.67;68.98;96209.34;4945826;29;20503;-84
2023/03/13 01:16:19;;;;;;;5.57;2.47;;;;;;;7.62;69.06;96202.09;4945487;29;20094;-83
2023/03/13 01:18:48;;;;;;;5.07;2.05;;;;;;;7.63;69.18;96195.09;4944328;29;20048;-85
2023/03/13 01:21:18;;;;;;;8.25;2.75;;;;;;;7.64;69.13;96199.31;4945453;29;20407;-83
2023/03/13 01:23:46;;;;;;;8.18;2.55;;;;;;;7.62;69.28;96188.31;4946068;29;20082;-83
2023/03/13 01:26:14;;;;;;;8.18;3.08;;;;;;;7.60;69.41;96187.66;4943837;29;20056;-83
2023/03/13 01:28:42;;;;;;;9.00;2.38;;;;;;;7.60;69.17;96187.66;4943365;29;20115;-85
2023/03/13 01:31:13;;;;;;;10.10;2.60;;;;;;;7.56;69.48;96181.19;4946666;29;20531;-83
2023/03/13 01:33:41;;;;;;;7.68;2.25;;;;;;;7.56;69.56;96191.59;4946999;29;20110;-83
2023/03/13 01:36:09;;;;;;;8.40;2.30;;;;;;;7.53;69.66;96177.16;4946419;29;20441;-86
2023/03/13 01:38:38;;;;;;;9.60;2.38;;;;;;;7.52;69.90;96175.56;4945542;29;20110;-83
2023/03/13 01:41:07;;;;;;;9.20;2.75;;;;;;;7.53;69.70;96176.38;4946846;29;20130;-87
2023/03/13 01:43:36;;;;;;;11.32;3.10;;;;;;;7.53;69.93;96166.00;4946134;29;20052;-83
2023/03/13 01:46:15;;;;;;;9.30;3.10;;;;;;;7.55;70.08;96166.63;4946744;29;20067;-86
2023/03/13 01:48:51;;;;;;;8.27;2.35;;;;;;;7.55;70.05;96153.66;4944545;29;20048;-86
2023/03/13 01:51:23;;;;;;;11.02;2.47;;;;;;;7.54;69.90;96163.22;4946143;29;20071;-85
2023/03/13 01:53:57;;;;;;;9.55;2.53;;;;;;;7.52;69.88;96154.81;4955299;29;20115;-85
2023/03/13 01:56:29;;;;;;;10.55;4.20;;;;;;;7.51;69.95;96155.78;4950027;29;20114;-86
2023/03/13 01:58:59;;;;;;;8.77;3.72;;;;;;;7.51;70.50;96162.75;4946828;29;20086;-84
2023/03/13 02:01:29;;;;;;;7.90;2.63;;;;;;;7.50;70.32;96150.75;4946262;29;20520;-87
2023/03/13 02:03:58;;;;;;;4.45;2.28;;;;;;;7.47;70.09;96145.91;4946662;29;20059;-86
2023/03/13 02:06:29;;;;;;;4.05;2.30;;;;;;;7.47;70.35;96145.91;4947541;29;20462;-85
2023/03/13 02:09:02;;;;;;;5.05;2.25;;;;;;;7.43;70.49;96138.50;4948392;29;20075;-86
2023/03/13 02:11:37;;;;;;;9.77;2.53;;;;;;;7.42;70.43;96141.25;4947344;29;20062;-84
2023/03/13 02:14:05;;;;;;;10.80;2.72;;;;;;;7.40;70.47;96133.63;4948146;29;20445;-83
2023/03/13 02:16:36;;;;;;;4.97;2.47;;;;;;;7.39;70.69;96133.78;4947340;29;20059;-84
2023/03/13 02:19:14;;;;;;;7.13;2.15;;;;;;;7.37;71.07;96126.19;4946762;29;20056;-83
2023/03/13 02:21:49;;;;;;;7.53;2.45;;;;;;;7.36;70.78;96134.94;4947702;29;20430;-85
2023/03/13 02:24:26;;;;;;;8.52;2.35;;;;;;;7.36;70.91;96124.56;4946331;29;20083;-83
2023/03/13 02:26:55;;;;;;;8.90;2.40;;;;;;;7.36;70.79;96121.97;4946311;29;20055;-86
2023/03/13 02:29:25;;;;;;;8.02;2.10;;;;;;;7.36;70.89;96121.97;4945324;29;20044;-88
2023/03/13 02:31:53;;;;;;;5.43;2.22;;;;;;;7.36;71.10;96115.97;4945323;29;20610;-85
2023/03/13 02:34:25;;;;;;;5.32;2.22;;;;;;;7.36;70.74;96114.19;4945116;29;20138;-89
2023/03/13 02:36:54;;;;;;;5.80;2.40;;;;;;;7.35;70.94;96112.59;4946725;29;20063;-86
2023/03/13 02:39:24;;;;;;;6.30;2.45;;;;;;;7.32;70.78;96102.53;4946915;29;20071;-83
2023/03/13 02:41:53;;;;;;;7.72;2.70;;;;;;;7.29;71.00;96100.31;4944314;29;20071;-83
2023/03/13 02:44:22;;;;;;;9.38;2.55;;;;;;;7.24;71.38;96089.66;4944746;29;20502;-82
2023/03/13 02:46:52;;;;;;;10.68;2.78;;;;;;;7.22;71.38;96091.59;4944024;29;20120;-82
2023/03/13 02:49:23;;;;;;;6.18;2.13;;;;;;;7.20;71.41;96088.38;4942866;29;20099;-85
2023/03/13 02:51:53;;;;;;;9.23;2.67;;;;;;;7.17;71.50;96081.75;4944223;29;20150;-85
2023/03/13 02:54:23;;;;;;;6.97;2.03;;;;;;;7.16;71.81;96080.13;4947446;29;20052;-91
2023/03/13 02:56:54;;;;;;;9.52;2.75;;;;;;;7.16;71.79;96072.34;4957480;29;20051;-90
2023/03/13 02:59:23;;;;;;;8.70;2.88;;;;;;;7.17;71.81;96073.97;4956296;29;20119;-88
2023/03/13 03:01:51;;;;;;;9.30;2.90;;;;;;;7.15;71.91;96070.75;4954129;29;20054;-90
2023/03/13 03:04:20;;;;;;;7.65;2.42;;;;;;;7.13;71.63;96077.09;4953341;29;20059;-89
2023/03/13 03:06:49;;;;;;;4.90;2.20;;;;;;;7.12;72.02;96065.09;4953126;29;20051;-88
2023/03/13 03:09:17;;;;;;;6.35;2.42;;;;;;;7.11;72.18;96074.66;4952088;29;20055;-88
2023/03/13 03:11:46;;;;;;;7.20;2.28;;;;;;;7.13;72.20;96077.88;4952103;29;20048;-88
2023/03/13 03:14:14;;;;;;;7.22;2.65;;;;;;;7.16;72.02;96066.34;4951452;29;20060;-89
2023/03/13 03:16:43;;;;;;;6.28;2.47;;;;;;;7.18;72.03;96069.59;4951073;29;20127;-87
2023/03/13 03:19:11;;;;;;;7.43;1.92;;;;;;;7.21;72.08;96066.63;4950499;29;20067;-86
2023/03/13 03:21:39;;;;;;;5.60;2.08;;;;;;;7.23;72.17;96059.47;4950084;29;20116;-89
2023/03/13 03:24:08;;;;;;;7.93;1.73;;;;;;;7.25;72.02;96057.53;4949075;29;20181;-89
2023/03/13 03:26:36;;;;;;;5.72;2.65;;;;;;;7.25;72.03;96047.16;4948824;29;20048;-87
2023/03/13 03:29:03;;;;;;;7.88;1.70;;;;;;;7.26;72.17;96046.19;4949535;29;20058;-86
2023/03/13 03:31:31;;;;;;;6.47;2.20;;;;;;;7.26;72.33;96040.16;4949777;29;20478;-87
2023/03/13 03:34:00;;;;;;;8.43;2.17;;;;;;;7.26;72.30;96035.81;4949031;29;20052;-87
2023/03/13 03:36:29;;;;;;;9.73;2.60;;;;;;;7.29;71.99;96025.06;4946807;29;20509;-89
2023/03/13 03:38:57;;;;;;;3.97;2.00;;;;;;;7.31;72.39;96028.28;4947387;29;20063;-86
2023/03/13 03:41:24;;;;;;;4.50;1.55;;;;;;;7.34;72.59;96033.13;4946468;29;20047;-85
2023/03/13 03:43:52;;;;;;;5.15;2.15;;;;;;;7.37;72.66;96024.19;4947310;29;20055;-83
2023/03/13 03:46:20;;;;;;;7.88;2.17;;;;;;;7.35;72.67;96013.19;4947113;29;20054;-85
2023/03/13 03:48:47;;;;;;;8.75;2.50;;;;;;;7.38;72.74;96007.66;4945158;29;20058;-88
2023/03/13 03:51:16;;;;;;;5.35;2.85;;;;;;;7.37;73.20;96006.84;4946949;29;20589;-87
2023/03/13 03:53:44;;;;;;;5.57;2.17;;;;;;;7.38;73.25;95998.06;4945147;29;20052;-88
2023/03/13 03:56:12;;;;;;;6.75;1.90;;;;;;;7.40;73.58;96005.69;4944624;29;20138;-88
2023/03/13 03:58:40;;;;;;;6.45;2.08;;;;;;;7.39;73.70;95994.50;4944228;29;20062;-87
2023/03/13 04:01:07;;;;;;;6.32;1.67;;;;;;;7.38;73.54;95995.47;4943552;29;20056;-83
2023/03/13 04:03:35;;;;;;;7.43;2.33;;;;;;;7.36;73.60;95999.22;4943743;29;20079;-89
2023/03/13 04:06:04;;;;;;;10.07;3.10;;;;;;;7.35;74.13;96008.81;4944094;29;20060;-86
2023/03/13 04:08:33;;;;;;;6.22;1.88;;;;;;;7.35;73.76;96002.81;4943028;29;20498;-82
2023/03/13 04:11:01;;;;;;;9.75;3.17;;;;;;;7.35;73.90;95997.63;4943603;29;20130;-89
2023/03/13 04:13:29;;;;;;;6.93;1.80;;;;;;;7.34;74.04;96007.19;4942730;29;20110;-83
2023/03/13 04:15:57;;;;;;;6.80;3.08;;;;;;;7.35;74.35;95998.44;4942749;29;20051;-83
2023/03/13 04:18:25;;;;;;;4.80;1.95;;;;;;;7.37;74.49;95990.47;4941299;29;20162;-86
2023/03/13 04:21:00;;;;;;;5.10;1.55;;;;;;;7.39;74.81;95991.91;4942123;29;20510;-83
2023/03/13 04:23:28;;;;;;;8.02;2.17;;;;;;;7.42;74.53;95999.31;4943534;29;20051;-83
2023/03/13 04:25:57;;;;;;;6.15;1.73;;;;;;;7.43;74.70;95993.16;4942137;29;20592;-88
2023/03/13 04:28:25;;;;;;;4.60;1.92;;;;;;;7.42;74.42;95988.94;4942358;29;20214;-85
2023/03/13 04:30:56;;;;;;;5.25;2.05;;;;;;;7.41;74.74;95984.75;4940746;29;20056;-84
2023/03/13 04:33:24;;;;;;;4.30;2.30;;;;;;;7.42;75.14;95991.53;4942235;29;20050;-84
2023/03/13 04:35:51;;;;;;;5.25;1.83;;;;;;;7.46;75.25;95991.22;4942325;29;20060;-82
2023/03/13 04:38:19;;;;;;;6.38;1.83;;;;;;;7.48;75.58;95994.41;4941005;29;20057;-87
2023/03/13 04:40:47;;;;;;;7.20;1.85;;;;;;;7.49;75.90;95989.03;4941718;29;20130;-82
2023/03/13 04:43:16;;;;;;;4.47;2.00;;;;;;;7.49;76.01;95986.44;4970525;23;20051;-79
2023/03/13 04:45:45;;;;;;;4.97;1.73;;;;;;;7.51;75.73;95987.06;4955011;29;20057;-80
2023/03/13 04:48:13;;;;;;;4.82;2.20;;;;;;;7.52;75.78;95974.91;4956485;29;20074;-80
2023/03/13 04:50:41;;;;;;;6.78;2.13;;;;;;;7.55;76.31;95983.16;4956202;29;20106;-80
2023/03/13 04:53:08;;;;;;;4.60;1.50;;;;;;;7.58;76.51;95981.97;4955221;28;20129;-79
2023/03/13 04:55:36;;;;;;;5.05;1.60;;;;;;;7.61;76.52;95976.44;4954840;29;20057;-80
2023/03/13 04:58:03;;;;;;;5.20;1.95;;;;;;;7.65;76.31;95969.91;4954142;29;20055;-79
2023/03/13 05:00:32;;;;;;;5.35;2.15;;;;;;;7.64;76.68;95961.31;4954655;29;20506;-80
2023/03/13 05:03:00;;;;;;;6.88;2.05;;;;;;;7.64;76.44;95963.09;4954720;28;20051;-79
2023/03/13 05:05:27;;;;;;;4.05;2.10;;;;;;;7.64;76.61;95956.13;4954245;29;20510;-79
2023/03/13 05:07:55;;;;;;;5.28;1.83;;;;;;;7.66;76.92;95960.34;4953827;29;20059;-79
2023/03/13 05:10:22;;;;;;;4.60;1.77;;;;;;;7.66;76.88;95958.53;4954469;29;20049;-79
2023/03/13 05:12:50;;;;;;;6.32;2.05;;;;;;;7.71;76.92;95961.41;4954281;28;20146;-79
2023/03/13 05:15:18;;;;;;;5.95;2.05;;;;;;;7.74;76.74;95960.22;4968644;29;20134;-80
2023/03/13 05:17:46;;;;;;;6.53;2.38;;;;;;;7.74;76.89;95955.03;4968015;29;20058;-80
2023/03/13 05:20:14;;;;;;;6.20;2.92;;;;;;;7.74;76.79;95955.88;4954782;29;20052;-80
2023/03/13 05:22:42;;;;;;;8.77;3.55;;;;;;;7.75;76.80;95951.47;4954839;28;20057;-80
2023/03/13 05:25:09;;;;;;;7.20;3.15;;;;;;;7.74;76.85;95948.06;4954376;29;20056;-79
2023/03/13 05:27:37;;;;;;;9.27;2.90;;;;;;;7.74;76.83;95955.88;4954617;29;20051;-77
2023/03/13 05:30:05;;;;;;;4.88;2.58;;;;;;;7.75;77.08;95960.06;4955668;29;20052;-79
2023/03/13 05:32:33;;;;;;;8.18;2.60;;;;;;;7.76;76.98;95959.09;4955616;28;20055;-80
2023/03/13 05:35:02;;;;;;;6.53;3.05;;;;;;;7.75;77.15;95949.69;4975582;28;20051;-80
2023/03/13 05:37:30;;;;;;;4.03;2.00;;;;;;;7.73;77.41;95954.25;4960087;28;20047;-79
2023/03/13 05:39:58;;;;;;;8.73;2.15;;;;;;;7.74;77.50;95950.69;4954751;29;20115;-79
2023/03/13 05:42:25;;;;;;;7.10;2.42;;;;;;;7.73;77.38;95954.25;4955227;28;20058;-80
2023/03/13 05:44:53;;;;;;;8.48;1.90;;;;;;;7.74;77.37;95944.66;4960601;29;20055;-77
2023/03/13 05:47:20;;;;;;;6.43;2.08;;;;;;;7.74;77.30;95934.25;4956370;29;20075;-80
2023/03/13 05:49:48;;;;;;;4.97;2.00;;;;;;;7.75;77.47;95921.13;4953196;29;20051;-77
2023/03/13 05:52:17;;;;;;;4.97;1.88;;;;;;;7.74;77.57;95919.53;4954056;29;20051;-77
2023/03/13 05:54:44;;;;;;;7.70;2.60;;;;;;;7.77;77.27;95918.34;4953446;29;20418;-77
2023/03/13 05:57:12;;;;;;;5.78;1.90;;;;;;;7.80;77.58;95918.78;4952852;29;20043;-78
2023/03/13 05:59:40;;;;;;;7.22;2.22;;;;;;;7.81;77.44;95920.41;4953306;29;20421;-77
2023/03/13 06:02:07;;;;;;;7.38;2.00;;;;;;;7.86;77.64;95921.66;4955235;29;20051;-78
2023/03/13 06:04:35;;;;;;;3.20;1.55;;;;;;;7.87;77.80;95924.06;4955661;29;20115;-77
2023/03/13 06:07:02;;;;;;;4.57;2.42;;;;;;;7.88;78.04;95924.88;4953790;29;20059;-77
2023/03/13 06:09:31;;;;;;;5.40;2.00;;;;;;;7.89;77.79;95926.47;4951417;29;20521;-76
2023/03/13 06:11:59;;;;;;;9.57;3.85;;;;;;;7.89;77.89;95926.47;4936086;28;20876;-76
2023/03/13 06:14:27;;;;;;;7.53;3.53;;;;;;;7.87;77.95;95918.06;4952587;29;20079;-76
2023/03/13 06:16:57;;;;;;;6.88;2.45;;;;;;;7.89;78.13;95919.47;4953890;28;20133;-77
2023/03/13 06:19:24;;;;;;;9.05;2.70;;;;;;;7.90;77.90;95922.91;4957234;29;20047;-78
2023/03/13 06:21:52;;;;;;;4.60;1.67;;;;;;;7.90;78.08;95913.31;4952829;28;20055;-77
2023/03/13 06:24:20;;;;;;;4.10;2.10;;;;;;;7.94;78.07;95908.56;4953836;29;20074;-77
2023/03/13 06:26:49;;;;;;;6.10;1.85;;;;;;;7.97;78.09;95910.78;4954726;29;20051;-78
2023/03/13 06:29:17;;;;;;;5.00;2.33;;;;;;;8.01;77.90;95909.44;4953873;29;20051;-77
2023/03/13 06:31:45;;;;;;;4.18;1.80;;;;;;;8.05;77.72;95911.50;4953288;28;20142;-76
2023/03/13 06:34:13;;;;;;;4.68;1.90;;;;;;;8.09;77.74;95911.94;4953519;29;20429;-76
2023/03/13 06:36:41;;;;;;;4.10;1.50;;;;;;;8.12;77.88;95915.97;4954639;29;20059;-75
2023/03/13 06:39:09;;;;;;;6.88;2.00;;;;;;;8.15;77.82;95921.56;4955423;29;20051;-76
2023/03/13 06:41:37;;;;;;;6.53;2.30;;;;;;;8.17;77.74;95918.81;4954909;28;20621;-79
2023/03/13 06:44:06;;;;;;;4.32;1.83;;;;;;;8.21;78.30;95912.25;4955365;29;20143;-76
2023/03/13 06:46:33;;;;;;;4.43;1.63;;;;;;;8.25;78.15;95901.31;4956417;29;20425;-78
2023/03/13 06:49:03;;;;;;;3.50;1.70;;;;;;;8.29;78.00;95906.97;4958244;29;20123;-80
2023/03/13 06:51:31;;;;;;;4.55;1.52;;;;;;;8.33;78.23;95891.78;4956249;29;20054;-80
2023/03/13 06:53:59;;;;;;;3.83;1.38;;;;;;;8.34;78.19;95891.59;4960285;28;20078;-79
2023/03/13 06:56:26;;;;;;;3.42;1.30;;;;;;;8.38;77.98;95879.84;4955776;29;20085;-78
2023/03/13 06:58:54;;;;;;;4.70;1.75;;;;;;;8.42;77.97;95888.13;4956439;29;20055;-79
2023/03/13 07:01:24;;;;;;;2.15;1.40;;;;;;;8.44;78.09;95886.16;4957507;29;20212;-79
2023/03/13 07:03:52;;;;;;;4.50;1.50;;;;;;;8.49;77.88;95891.59;4956224;28;20083;-79
2023/03/13 07:06:20;;;;;;;3.67;1.17;;;;;;;8.56;77.93;95887.25;4955383;29;20055;-79
2023/03/13 07:08:47;;;;;;;2.55;1.13;;;;;;;8.61;77.69;95879.69;4955374;29;20055;-79
2023/03/13 07:11:15;;;;;;;3.00;1.35;;;;;;;8.66;77.34;95892.94;4955543;29;20055;-79
2023/03/13 07:13:43;;;;;;;1.77;0.95;;;;;;;8.76;77.37;95889.22;4955487;29;20151;-78
2023/03/13 07:16:13;;;;;;;5.22;1.63;;;;;;;8.83;77.35;95883.09;4956322;29;20078;-79
2023/03/13 07:18:43;;;;;;;5.30;1.35;;;;;;;8.90;77.38;95893.53;4955709;29;20556;-79
2023/03/13 07:21:11;;;;;;;6.30;1.80;;;;;;;8.97;77.27;95889.19;4954634;29;20425;-79
2023/03/13 07:23:39;;;;;;;3.10;1.70;;;;;;;9.04;77.16;95899.63;4956264;29;20118;-80
2023/03/13 07:26:10;;;;;;;4.22;1.63;;;;;;;9.10;77.17;95905.91;4955914;29;20054;-79
2023/03/13 07:28:38;;;;;;;2.90;1.13;;;;;;;9.17;77.22;95906.75;4953886;29;20309;-79
2023/03/13 07:31:07;;;;;;;1.27;0.75;;;;;;;9.24;77.42;95915.38;4955316;29;20051;-79
2023/03/13 07:33:35;;;;;;;1.02;0.52;;;;;;;9.33;77.36;95921.25;4955334;28;20399;-79
2023/03/13 07:36:05;;;;;;;0.60;0.60;;;;;;;9.41;77.44;95924.50;4955441;29;20058;-79
2023/03/13 07:38:32;;;;;;;0.25;0.25;;;;;;;9.46;77.16;95924.72;4953625;29;20053;-79
2023/03/13 07:41:00;;;;;;;1.02;0.32;;;;;;;9.52;77.22;95909.38;4955383;29;20051;-79
2023/03/13 07:43:30;;;;;;;1.40;0.40;;;;;;;9.62;77.42;95935.84;4954748;28;20134;-78
2023/03/13 07:45:59;;;;;;;0.63;0.50;;;;;;;9.69;77.20;95924.47;4955244;29;20051;-79
2023/03/13 07:48:30;;;;;;;0.88;0.50;;;;;;;9.79;76.94;95928.53;4954661;29;20144;-79
2023/03/13 07:50:58;;;;;;;2.03;0.50;;;;;;;9.84;76.48;95939.19;4954890;29;20044;-78
2023/03/13 07:53:27;;;;;;;1.60;0.73;;;;;;;9.88;76.69;95933.41;4953513;28;20047;-78
2023/03/13 07:55:57;;;;;;;1.83;1.00;;;;;;;9.93;76.61;95925.00;4954856;29;20055;-78
2023/03/13 07:58:25;;;;;;;3.40;1.30;;;;;;;9.94;76.65;95920.59;4953981;29;20054;-79
2023/03/13 08:00:53;;;;;;;3.70;2.00;;;;;;;9.98;76.78;95917.41;4956223;29;20055;-78
2023/03/13 08:03:22;;;;;;;4.20;2.60;;;;;;;10.03;76.69;95924.63;4968379;29;20073;-78
2023/03/13 08:05:57;;;;;;;4.47;2.33;;;;;;;10.06;76.77;95912.03;4957962;29;20514;-79
2023/03/13 08:08:27;;;;;;;3.33;2.10;;;;;;;10.14;76.79;95908.41;4935393;29;20066;-78
2023/03/13 08:10:59;;;;;;;3.90;2.30;;;;;;;10.20;76.67;95904.25;4952064;29;20063;-78
2023/03/13 08:13:27;;;;;;;4.03;2.22;;;;;;;10.23;76.46;95909.06;4953609;29;20090;-77
2023/03/13 08:16:02;;;;;;;4.63;1.60;;;;;;;10.24;76.96;95906.25;4954223;29;20425;-78
2023/03/13 08:18:33;;;;;;;3.35;1.35;;;;;;;10.27;76.92;95900.63;4953593;29;20055;-79
2023/03/13 08:21:02;;;;;;;1.17;0.93;;;;;;;10.30;76.83;95899.50;4952671;29;20417;-78
2023/03/13 08:23:31;;;;;;;0.82;0.70;;;;;;;10.38;76.94;95901.91;4955249;28;20465;-78
2023/03/13 08:26:02;;;;;;;2.40;1.02;;;;;;;10.43;77.19;95904.75;4954198;29;20057;-79
2023/03/13 08:28:30;;;;;;;1.33;0.60;;;;;;;10.48;76.97;95901.53;4953399;29;20487;-79
2023/03/13 08:30:58;;;;;;;0.50;0.45;;;;;;;10.49;76.94;95875.28;4954751;29;20513;-77
2023/03/13 08:33:25;;;;;;;0.63;0.40;;;;;;;10.53;76.77;95883.47;4954678;28;20449;-77
2023/03/13 08:35:53;;;;;;;1.65;0.45;;;;;;;10.54;76.62;95866.84;4954431;29;20051;-77
2023/03/13 08:38:20;;;;;;;0.30;0.28;;;;;;;10.58;76.57;95880.28;4953377;28;20446;-77
2023/03/13 08:40:51;;;;;;;1.42;0.30;;;;;;;10.60;76.57;95876.47;4954126;29;20057;-76
2023/03/13 08:43:18;;;;;;;0.63;0.30;;;;;;;10.62;76.49;95866.63;4954225;28;20425;-77
2023/03/13 08:45:46;;;;;;;0.47;0.30;;;;;;;10.64;76.22;95861.22;4954556;29;20126;-77
2023/03/13 08:48:13;;;;;;;0.50;0.30;;;;;;;10.63;76.33;95860.44;4953653;29;20106;-77
2023/03/13 08:50:41;;;;;;;0.68;0.38;;;;;;;10.64;76.50;95864.63;4954390;29;20051;-77
2023/03/13 08:53:08;;;;;;;1.13;0.40;;;;;;;10.69;76.45;95867.47;4954091;28;20048;-77
2023/03/13 08:55:36;;;;;;;0.73;0.47;;;;;;;10.74;76.25;95853.81;4954154;29;20428;-77
2023/03/13 08:58:04;;;;;;;1.23;0.60;;;;;;;10.77;76.12;95845.56;4953315;29;20054;-76
2023/03/13 09:00:32;;;;;;;2.45;0.68;;;;;;;10.80;75.98;95839.16;4954279;29;20055;-77
2023/03/13 09:03:00;;;;;;;0.73;0.60;;;;;;;10.83;76.00;95836.94;4953950;28;20494;-77
2023/03/13 09:05:27;;;;;;;1.48;0.50;;;;;;;10.85;75.81;95832.34;4954160;29;20055;-77
2023/03/13 09:07:55;;;;;;;1.15;0.65;;;;;;;10.92;75.83;95837.53;4953305;29;20047;-76
2023/03/13 09:10:23;;;;;;;0.88;0.43;;;;;;;10.98;75.77;95841.97;4953799;29;20063;-77
2023/03/13 09:12:50;;;;;;;0.98;0.35;;;;;;;11.08;75.74;95831.88;4953702;28;20058;-77
2023/03/13 09:15:19;;;;;;;0.98;0.40;;;;;;;11.21;75.40;95838.09;4953838;29;20494;-76
2023/03/13 09:17:47;;;;;;;0.85;0.40;;;;;;;11.42;75.76;95839.66;4953474;29;20142;-76
2023/03/13 09:20:14;;;;;;;0.90;0.77;;;;;;;11.65;75.11;95826.09;4953778;29;20047;-77
2023/03/13 09:22:42;;;;;;;3.40;0.80;;;;;;;11.88;74.22;95821.22;4953835;28;20086;-77
2023/03/13 09:25:10;;;;;;;0.50;0.47;;;;;;;12.18;73.55;95817.22;4953600;29;20557;-77
2023/03/13 09:27:37;;;;;;;0.70;0.50;;;;;;;12.41;72.59;95833.16;4953733;29;20527;-77
2023/03/13 09:30:06;;;;;;;2.05;0.45;;;;;;;12.58;71.99;95834.25;4953219;29;20093;-77
2023/03/13 09:32:35;;;;;;;2.33;0.40;;;;;;;12.67;71.39;95824.31;4953701;28;20087;-77
2023/03/13 09:35:02;;;;;;;1.55;0.55;;;;;;;12.70;70.96;95831.78;4953735;29;20054;-77
2023/03/13 09:37:30;;;;;;;1.67;0.85;;;;;;;12.73;70.75;95830.53;4953841;29;20055;-77
2023/03/13 09:39:58;;;;;;;2.38;0.90;;;;;;;12.75;70.83;95834.53;4953139;29;20456;-77
2023/03/13 09:42:37;;;;;;;0.98;0.63;;;;;;;12.77;70.35;95831.72;4953408;28;20043;-77
2023/03/13 09:45:10;;;;;;;1.05;0.50;;;;;;;12.77;70.26;95827.28;4953748;29;20055;-77
2023/03/13 09:47:46;;;;;;;1.77;0.70;;;;;;;12.84;70.05;95829.03;4953551;29;20577;-77
2023/03/13 09:50:17;;;;;;;3.40;0.57;;;;;;;12.89;70.19;95834.41;4954364;28;20051;-77
2023/03/13 09:52:48;;;;;;;4.90;0.60;;;;;;;12.93;69.76;95830.38;4957148;28;20515;-77
2023/03/13 09:55:20;;;;;;;0.43;0.43;;;;;;;12.98;69.31;95830.50;4957408;29;20281;-77
2023/03/13 09:57:54;;;;;;;1.23;0.47;;;;;;;13.01;69.55;95840.56;4956477;29;20146;-77
2023/03/13 10:00:25;;;;;;;0.80;0.47;;;;;;;12.99;69.58;95832.13;4957116;29;20055;-76
2023/03/13 10:03:00;;;;;;;0.63;0.30;;;;;;;13.01;69.84;95821.41;4957225;28;20051;-77
2023/03/13 10:05:30;;;;;;;1.15;0.70;;;;;;;13.07;69.63;95820.56;4965471;29;20134;-78
2023/03/13 10:08:09;;;;;;;1.35;0.55;;;;;;;13.11;69.28;95825.16;4964095;29;20506;-78
2023/03/13 10:10:47;;;;;;;0.55;0.50;;;;;;;13.22;68.81;95835.94;4964076;29;20086;-78
2023/03/13 10:13:22;;;;;;;0.45;0.45;;;;;;;13.28;69.29;95838.50;4962997;28;20051;-77
2023/03/13 10:15:55;;;;;;;7.00;1.20;;;;;;;13.34;68.65;95839.47;4957532;29;20059;-78
2023/03/13 10:18:24;;;;;;;2.70;0.77;;;;;;;13.39;68.60;95850.88;4956345;29;20460;-77
2023/03/13 10:20:56;;;;;;;1.60;0.55;;;;;;;13.44;68.24;95845.00;4956860;29;20053;-77
2023/03/13 10:23:33;;;;;;;3.25;0.80;;;;;;;13.49;67.61;95850.41;4956791;28;20051;-77
2023/03/13 10:26:00;;;;;;;0.65;0.50;;;;;;;13.56;67.64;95837.22;4956970;29;20429;-77
2023/03/13 10:28:28;;;;;;;1.55;0.60;;;;;;;13.57;67.90;95846.66;4955887;29;20134;-77
2023/03/13 10:31:06;;;;;;;0.55;0.47;;;;;;;13.58;66.58;95864.81;4956697;29;20086;-77
2023/03/13 10:33:37;;;;;;;1.70;0.70;;;;;;;13.55;67.44;95854.75;4956418;28;20055;-77
2023/03/13 10:36:08;;;;;;;1.25;0.57;;;;;;;13.52;67.39;95849.94;4956433;29;20509;-77
2023/03/13 10:38:47;;;;;;;0.75;0.60;;;;;;;13.52;67.40;95863.03;4955939;29;20051;-78
2023/03/13 10:41:23;;;;;;;0.70;0.70;;;;;;;13.48;67.69;95859.25;4956589;29;20146;-77
2023/03/13 10:43:53;;;;;;;1.05;0.75;;;;;;;13.46;67.75;95848.19;4969563;23;20058;-79
2023/03/13 10:46:25;;;;;;;1.70;0.63;;;;;;;13.47;68.18;95828.84;4949855;29;20430;-80
2023/03/13 10:48:55;;;;;;;1.15;0.70;;;;;;;13.52;67.93;95826.38;4949455;29;20059;-79
2023/03/13 10:51:30;;;;;;;0.95;0.70;;;;;;;13.58;67.33;95825.50;4950901;29;20055;-79
2023/03/13 10:53:57;;;;;;;1.13;0.60;;;;;;;13.67;67.73;95819.97;4950379;29;20134;-80
2023/03/13 10:56:29;;;;;;;1.02;0.88;;;;;;;13.70;67.21;95816.88;4949391;29;20506;-79
2023/03/13 10:58:57;;;;;;;4.32;0.95;;;;;;;13.74;66.31;95820.69;4950158;29;20087;-81
2023/03/13 11:01:27;;;;;;;1.52;0.90;;;;;;;13.77;66.51;95810.56;4950137;29;20524;-80
2023/03/13 11:03:59;;;;;;;2.88;0.93;;;;;;;13.80;66.51;95804.06;4951272;29;20586;-80
2023/03/13 11:06:30;;;;;;;0.98;0.70;;;;;;;13.87;65.90;95799.53;4951278;29;20062;-79
2023/03/13 11:09:05;;;;;;;1.20;0.73;;;;;;;13.96;65.82;95798.19;4949852;29;20057;-80
2023/03/13 11:11:44;;;;;;;3.65;1.30;;;;;;;14.04;65.28;95794.47;4950650;29;20078;-79
2023/03/13 11:14:17;;;;;;;1.48;0.90;;;;;;;14.04;64.67;95783.16;4950195;29;20048;-79
2023/03/13 11:16:49;;;;;;;1.60;1.23;;;;;;;14.09;64.93;95778.06;4948927;29;20048;-79
2023/03/13 11:19:55;;;;;;;1.00;0.90;;;;;;;14.22;63.79;95772.63;4948949;29;20061;-79
2023/03/13 11:22:32;;;;;;;2.28;1.02;;;;;;;14.28;64.12;95771.75;4948449;29;20052;-79
2023/03/13 11:25:17;;;;;;;1.88;1.10;;;;;;;14.27;64.18;95757.00;4949385;29;20102;-82
2023/03/13 11:27:51;;;;;;;1.38;0.88;;;;;;;14.27;63.76;95764.88;4950583;29;20058;-79
2023/03/13 11:30:42;;;;;;;4.97;1.00;;;;;;;14.29;63.81;95759.41;4950224;29;20055;-79
2023/03/13 11:33:17;;;;;;;4.55;0.95;;;;;;;14.29;63.33;95760.19;4953271;29;20048;-82
2023/03/13 11:35:50;;;;;;;1.55;0.90;;;;;;;14.34;63.25;95743.78;4952445;29;20569;-80
2023/03/13 11:38:20;;;;;;;5.25;1.60;;;;;;;14.39;63.44;95751.78;4950072;29;20031;-79
2023/03/13 11:40:56;;;;;;;2.05;1.23;;;;;;;14.42;63.18;95740.84;4951616;29;20084;-82
2023/03/13 11:43:40;;;;;;;3.50;1.10;;;;;;;14.46;62.33;95746.44;4950258;29;20508;-79
2023/03/13 11:46:21;;;;;;;3.13;1.50;;;;;;;14.52;63.21;95738.47;4949457;29;20430;-79
2023/03/13 11:49:22;;;;;;;2.13;1.75;;;;;;;14.56;61.59;95741.44;4947638;29;20075;-78
2023/03/13 11:52:01;;;;;;;1.55;1.45;;;;;;;14.60;62.05;95729.47;4948199;29;20131;-80